Flight Track Log - Related Links

Times and Time Zones

All times are in EST time to prevent confusion due to time zone crossing. See the TRS441A flight status page for this flight to view local times or setup timezone preferences in your user account.

Time Position Orientation Groundspeed Altitude Reporting Facility
EST Latitude Longitude Course Direction KTS MPH feet Rate Location/Type
Mon 05:12:59 PM 33.6333 -84.5167 194° South 219 252 3,300  Level Atlanta TRACON
Mon 05:13:59 PM 33.6333 -84.5833 270° West 259 298 5,600 2,333 Climbing Atlanta TRACON
Mon 05:15:41 PM 33.5817 -84.6997 242° Southwest 252 290 9,600 1,630 Climbing Atlanta Center
Mon 05:16:41 PM 33.4897 -84.6964 178° South 273 314 10,000 200 Climbing Atlanta Center
Mon 05:17:41 PM 33.3897 -84.6806 172° South 315 362 10,000 950 Level Atlanta Center
Mon 05:18:00 PM 33.1783 -84.3460 194° South  Level FlightAware Approximate
Mon 05:18:41 PM 33.2836 -84.6178 154° Southeast 352 405 11,900  Level Atlanta Center
Mon 05:19:41 PM 33.1858 -84.5600 154° Southeast 367 422 14,000 1,950 Climbing Atlanta Center
Mon 05:20:41 PM 33.0919 -84.5050 154° Southeast 378 435 15,800 1,800 Climbing Atlanta Center
Mon 05:21:41 PM 32.9919 -84.4450 153° Southeast 388 447 17,600 1,750 Climbing Atlanta Center
Mon 05:22:41 PM 32.8814 -84.4222 170° South 393 452 19,300 1,850 Climbing Atlanta Center
Mon 05:23:41 PM 32.7689 -84.4192 179° South 398 458 21,300 2,050 Climbing Atlanta Center
Mon 05:24:41 PM 32.6539 -84.4164 179° South 410 472 23,400 1,900 Climbing Atlanta Center
Mon 05:25:41 PM 32.5350 -84.4158 180° South 416 479 25,100 1,550 Climbing Atlanta Center
Mon 05:26:41 PM 32.4181 -84.4128 179° South 421 484 26,500 1,250 Climbing Atlanta Center
Mon 05:27:41 PM 32.2969 -84.4100 179° South 421 484 27,600 1,250 Climbing Atlanta Center
Mon 05:28:41 PM 32.1719 -84.4069 179° South 432 497 29,000 1,512 Climbing Atlanta Center
Mon 05:29:48 PM 32.0511 -84.4050 179° South 440 506 30,800 1,714 Climbing Jacksonville Center
Mon 05:30:47 PM 31.9300 -84.4031 179° South 440 506 32,600 1,412 Climbing Jacksonville Center
Mon 05:31:47 PM 31.8131 -84.4011 179° South 435 501 33,600 950 Climbing Jacksonville Center
Mon 05:32:47 PM 31.6942 -84.3894 175° South 430 495 34,500 700 Climbing Jacksonville Center
Mon 05:33:47 PM 31.5714 -84.3556 167° South 435 501 35,000 250 Climbing Jacksonville Center
Mon 05:34:47 PM 31.4550 -84.3222 166° South 441 507 35,000  Level Jacksonville Center
Mon 05:35:47 PM 31.3361 -84.2886 166° South 446 513 35,000  Level Jacksonville Center
Mon 05:36:47 PM 31.2175 -84.2603 168° South 446 513 35,000  Level Jacksonville Center
Mon 05:37:47 PM 31.0989 -84.2269 166° South 446 513 35,000  Level Jacksonville Center
Mon 05:38:47 PM 30.9678 -84.1936 168° South 446 513 35,000  Level Jacksonville Center
Mon 05:39:47 PM 30.8489 -84.1606 167° South 446 513 35,000  Level Jacksonville Center
Mon 05:40:47 PM 30.7303 -84.1322 168° South 446 513 35,000  Level Jacksonville Center
Mon 05:41:47 PM 30.6136 -84.1019 167° South 446 513 35,000 -50 Level Jacksonville Center
Mon 05:42:47 PM 30.5011 -84.0717 167° South 441 507 34,900 -50 Descending Jacksonville Center
Mon 05:43:48 PM 30.3928 -84.0436 167° South 428 493 34,900  Level Jacksonville Center
Mon 05:44:48 PM 30.2761 -84.0133 167° South 428 493 34,900  Level Jacksonville Center
Mon 05:45:47 PM 30.1597 -83.9736 164° South 428 493 34,900  Level Jacksonville Center
Mon 05:46:47 PM 30.0453 -83.9147 156° South 439 505 34,900  Level Jacksonville Center
Mon 05:47:47 PM 29.9308 -83.8583 157° South 445 512 34,900  Level Jacksonville Center
Mon 05:48:47 PM 29.8144 -83.8047 158° South 455 524 34,900  Level Jacksonville Center
Mon 05:49:47 PM 29.6978 -83.7461 156° South 455 524 34,900  Level Jacksonville Center
Mon 05:50:48 PM 29.5833 -83.6903 157° South 455 524 34,900 -850 Level Jacksonville Center
Mon 05:51:47 PM 29.4669 -83.6297 156° South 455 524 33,200 -2,550 Descending Jacksonville Center
Mon 05:52:48 PM 29.3503 -83.5764 158° South 455 524 29,800 -2,950 Descending Jacksonville Center
Mon 05:53:47 PM 29.2358 -83.5183 156° South 455 524 27,300 -2,200 Descending Jacksonville Center
Mon 05:54:48 PM 29.1297 -83.4511 151° Southeast 455 524 25,400 -1,850 Descending Jacksonville Center
Mon 05:55:47 PM 29.0275 -83.3889 152° Southeast 433 498 23,600 -1,750 Descending Jacksonville Center
Mon 05:56:48 PM 28.9256 -83.3244 151° Southeast 421 484 21,900 -1,700 Descending Jacksonville Center
Mon 05:57:47 PM 28.8278 -83.2600 150° Southeast 413 475 20,200 -1,714 Descending Jacksonville Center
Mon 05:58:47 PM 28.7317 -83.2003 151° Southeast 408 470 18,500 -1,719 Descending Jacksonville Center
Mon 06:00:52 PM 28.5333 -83.0833 153° Southeast 377 434 14,900 -1,622 Descending Tampa TRACON
Mon 06:01:52 PM 28.4500 -83.0333 152° Southeast 336 387 13,500 -1,409 Descending Tampa TRACON
Mon 06:03:04 PM 28.3667 -82.9667 145° Southeast 303 349 11,800 -1,512 Descending Tampa TRACON
Mon 06:03:59 PM 28.3000 -82.9167 147° Southeast 301 346 10,300 -1,474 Descending Tampa TRACON
Mon 06:04:58 PM 28.2833 -82.8167 101° East 300 345 9,000 -1,316 Descending Tampa TRACON
Mon 06:05:53 PM 28.2833 -82.7500 90° East 284 327 7,800 -1,565 Descending Tampa TRACON
Mon 06:06:53 PM 28.2833 -82.6500 90° East 275 316 6,000 -1,333 Descending Tampa TRACON
Mon 06:07:59 PM 28.2833 -82.5667 90° East 273 314 5,000 -1,000 Descending Tampa TRACON
Mon 06:08:59 PM 28.2167 -82.5333 156° South 262 302 3,900 -1,050 Descending Tampa TRACON
Mon 06:09:59 PM 28.1500 -82.5333 180° South 222 255 2,900 -950 Descending Tampa TRACON
Mon 06:10:59 PM 28.1000 -82.5333 180° South 175 201 2,000 -857 Descending Tampa TRACON
Mon 06:12:05 PM 28.0500 -82.5333 180° South 142 163 1,100 -762 Descending Tampa TRACON
Mon 06:13:05 PM 28.0167 -82.5500 204° Southwest 126 145 400 -700 Descending Tampa TRACON

Login

Don't have an account? Register now (free) for customized features, flight alerts, and more!